首页
METAR-TAF:

METAR-TAF

机场 :

威靈頓國際機場

惠灵顿, 新西兰

纬度: 41-20S, 经度: 174-48E, 海拔: 12米

当前天气观测

该预报发布于42分钟前的18:00 UTC
风速3节,风向北转东北
温度 5°C
湿度 93%
气压 1034 hPa
能见度10公里或以上

METAR: NZWN 261800Z AUTO 02003KT 9999 NCD 05/04 Q1034 NOSIG

时间: 06:42 (18:42 UTC)

预报

该预报发布于1小时和35分钟前的17:07 UTC
预报有效从26日的 18点(UTC)到 27日的 18点(UTC)
风速5节,风向北转东北
能见度10公里或以上
少量云层高于1200英尺
散云层高于3000英尺
成为
从 27日的 00点(UTC)到 27日的 02点(UTC)
风速10节,风向
成为
从 27日的 06点(UTC)到 27日的 08点(UTC)
风速5节,风向北转东北

TAF: NZWN 261707Z 2618/2718 03005KT 9999 FEW012 SCT030 BECMG 2700/2702 18010KT BECMG 2706/2708 02005KT

超过4000个机场的气象观测和天气预报(METAR&TAF报告)。

可查询的气象台以黄色和红色小点在地图上表示。

将鼠标移到小点上方,可查看气象台名称。

然后点击查看天气观测和预报。

如需切换地图:点击带黑十字的绿色按钮放大地图;点击带横线的绿色按钮缩小地图;或者点击绿色箭头查看邻近地区的地图。


METAR-TAF: